createdAt,value
2023-03-06T00:01:54.073Z,7.85
2023-03-06T00:04:20.772Z,9.23
2023-03-06T00:06:47.392Z,8.70
2023-03-06T00:09:14.010Z,8.88
2023-03-06T00:11:40.619Z,8.20
2023-03-06T00:14:07.257Z,7.82
2023-03-06T00:16:34.079Z,8.50
2023-03-06T00:19:00.695Z,7.57
2023-03-06T00:21:27.356Z,7.65
2023-03-06T00:23:53.991Z,7.90
2023-03-06T00:26:20.625Z,7.22
2023-03-06T00:28:47.222Z,8.48
2023-03-06T00:31:13.932Z,7.97
2023-03-06T00:33:40.642Z,7.72
2023-03-06T00:36:07.572Z,7.75
2023-03-06T00:38:35.661Z,7.78
2023-03-06T00:41:10.642Z,7.75
2023-03-06T00:43:37.499Z,7.45
2023-03-06T00:46:05.716Z,7.80
2023-03-06T00:48:33.346Z,8.60
2023-03-06T00:51:00.442Z,7.88
2023-03-06T00:53:27.149Z,8.45
2023-03-06T00:55:53.884Z,8.63
2023-03-06T00:58:20.556Z,8.60
2023-03-06T01:00:47.223Z,7.70
2023-03-06T01:03:13.882Z,8.05
2023-03-06T01:05:40.699Z,8.20
2023-03-06T01:08:08.825Z,9.13
2023-03-06T01:10:38.961Z,9.02
2023-03-06T01:13:06.051Z,9.02
2023-03-06T01:15:32.768Z,7.90
2023-03-06T01:17:59.435Z,9.10
2023-03-06T01:20:26.177Z,8.55
2023-03-06T01:22:54.533Z,8.75
2023-03-06T01:25:21.464Z,8.45
2023-03-06T01:27:48.124Z,7.60
2023-03-06T01:30:14.919Z,8.48
2023-03-06T01:32:41.624Z,9.18
2023-03-06T01:35:09.023Z,8.52
2023-03-06T01:37:36.776Z,7.90
2023-03-06T01:40:04.397Z,8.27
2023-03-06T01:42:32.190Z,7.15
2023-03-06T01:45:04.385Z,8.52
2023-03-06T01:47:31.198Z,7.07
2023-03-06T01:49:59.108Z,7.50
2023-03-06T01:52:30.356Z,8.02
2023-03-06T01:55:02.938Z,7.30
2023-03-06T01:57:40.975Z,9.13
2023-03-06T02:00:12.383Z,10.40
2023-03-06T02:02:40.377Z,9.00
2023-03-06T02:05:07.778Z,8.68
2023-03-06T02:07:36.286Z,18.70
2023-03-06T02:10:02.944Z,27.83
2023-03-06T02:12:29.666Z,11.73
2023-03-06T02:14:56.474Z,13.15
2023-03-06T02:17:24.273Z,22.20
2023-03-06T02:20:12.092Z,13.07
2023-03-06T02:23:05.061Z,21.27
2023-03-06T02:25:46.080Z,14.88
2023-03-06T02:28:16.147Z,9.68
2023-03-06T02:30:44.950Z,9.98
2023-03-06T02:33:14.299Z,11.40
2023-03-06T02:35:46.658Z,12.27
2023-03-06T02:38:19.794Z,8.80
2023-03-06T02:40:49.819Z,8.50
2023-03-06T02:43:21.215Z,8.93
2023-03-06T02:45:50.531Z,9.80
2023-03-06T02:48:18.779Z,12.63
2023-03-06T02:50:46.554Z,11.25
2023-03-06T02:53:15.053Z,11.98
2023-03-06T02:55:42.455Z,12.00
2023-03-06T02:58:09.310Z,11.38
2023-03-06T03:00:36.549Z,10.40
2023-03-06T03:03:04.378Z,8.05
2023-03-06T03:05:31.452Z,11.38
2023-03-06T03:07:58.449Z,8.68
2023-03-06T03:10:25.311Z,9.23
2023-03-06T03:12:51.971Z,8.32
2023-03-06T03:15:18.695Z,8.30
2023-03-06T03:17:45.304Z,17.95
2023-03-06T03:20:15.082Z,10.75
2023-03-06T03:22:41.796Z,12.18
2023-03-06T03:25:09.290Z,38.28
2023-03-06T03:27:35.891Z,30.42
2023-03-06T03:30:02.563Z,15.40
2023-03-06T03:32:29.608Z,27.70
2023-03-06T03:34:56.517Z,33.08
2023-03-06T03:37:23.269Z,18.00
2023-03-06T03:39:49.941Z,12.35
2023-03-06T03:42:16.603Z,12.82
2023-03-06T03:44:43.266Z,14.15
2023-03-06T03:47:09.904Z,17.33
2023-03-06T03:49:36.542Z,28.88
2023-03-06T03:52:03.324Z,23.50
2023-03-06T03:54:29.968Z,55.80
2023-03-06T03:56:56.630Z,19.38
2023-03-06T03:59:23.306Z,39.55
2023-03-06T04:01:49.949Z,44.58
2023-03-06T04:04:16.634Z,21.75
2023-03-06T04:06:43.343Z,13.82
2023-03-06T04:09:10.162Z,11.07
2023-03-06T04:11:36.946Z,9.93
2023-03-06T04:14:03.590Z,18.15
2023-03-06T04:16:30.396Z,14.07
2023-03-06T04:18:57.176Z,26.02
2023-03-06T04:21:23.769Z,25.30
2023-03-06T04:23:50.457Z,29.98
2023-03-06T04:26:17.050Z,40.13
2023-03-06T04:28:43.720Z,11.55
2023-03-06T04:31:12.426Z,8.57
2023-03-06T04:33:39.639Z,8.07
2023-03-06T04:36:06.521Z,8.23
2023-03-06T04:38:33.290Z,8.38
2023-03-06T04:40:59.941Z,8.70
2023-03-06T04:43:26.787Z,8.75
2023-03-06T04:45:53.464Z,8.30
2023-03-06T04:48:20.117Z,9.52
2023-03-06T04:50:46.982Z,8.38
2023-03-06T04:53:14.695Z,8.70
2023-03-06T04:55:41.362Z,9.65
2023-03-06T04:58:07.991Z,9.13
2023-03-06T05:00:34.812Z,8.90
2023-03-06T05:03:02.037Z,7.88
2023-03-06T05:05:29.375Z,8.35
2023-03-06T05:07:56.500Z,9.25
2023-03-06T05:10:23.915Z,8.00
2023-03-06T05:12:50.578Z,7.30
2023-03-06T05:15:17.868Z,8.13
2023-03-06T05:17:44.767Z,8.43
2023-03-06T05:20:13.190Z,8.32
2023-03-06T05:22:40.357Z,8.63
2023-03-06T05:25:07.567Z,8.15
2023-03-06T05:27:34.557Z,8.02
2023-03-06T05:30:01.372Z,7.88
2023-03-06T05:32:28.478Z,7.97
2023-03-06T05:34:55.698Z,8.48
2023-03-06T05:37:23.192Z,8.25
2023-03-06T05:39:51.042Z,8.48
2023-03-06T05:42:18.486Z,7.30
2023-03-06T05:44:45.396Z,8.45
2023-03-06T05:47:12.636Z,7.72
2023-03-06T05:49:39.634Z,8.30
2023-03-06T05:52:07.333Z,7.90
2023-03-06T05:54:36.740Z,7.28
2023-03-06T05:57:05.345Z,9.45
2023-03-06T05:59:33.170Z,7.78
2023-03-06T06:02:00.766Z,8.68
2023-03-06T06:04:27.865Z,7.43
2023-03-06T06:06:58.029Z,8.45
2023-03-06T06:09:24.936Z,8.45
2023-03-06T06:11:56.618Z,7.70
2023-03-06T06:14:23.626Z,7.70
2023-03-06T06:16:50.333Z,8.10
2023-03-06T06:19:20.379Z,7.65
2023-03-06T06:21:48.969Z,8.52
2023-03-06T06:24:17.135Z,7.63
2023-03-06T06:26:44.002Z,8.13
2023-03-06T06:29:11.940Z,7.43
2023-03-06T06:31:39.450Z,7.93
2023-03-06T06:34:07.409Z,7.60
2023-03-06T06:36:34.636Z,9.00
2023-03-06T06:39:01.608Z,7.68
2023-03-06T06:41:50.735Z,7.18
2023-03-06T06:44:16.272Z,7.82
2023-03-06T06:49:32.219Z,8.68
2023-03-06T06:51:58.934Z,7.85
2023-03-06T06:54:26.386Z,8.57
2023-03-06T06:56:53.043Z,7.20
2023-03-06T06:59:20.002Z,7.75
2023-03-06T07:01:46.697Z,8.63
2023-03-06T07:04:14.100Z,8.43
2023-03-06T07:06:41.838Z,7.38
2023-03-06T07:09:08.513Z,8.10
2023-03-06T07:11:35.171Z,10.23
2023-03-06T07:14:02.112Z,8.93
2023-03-06T07:16:28.715Z,10.15
2023-03-06T07:18:55.368Z,8.93
2023-03-06T07:21:22.210Z,10.40
2023-03-06T07:23:48.854Z,7.95
2023-03-06T07:26:15.587Z,7.68
2023-03-06T07:28:51.962Z,7.50
2023-03-06T07:31:22.253Z,8.25
2023-03-06T07:33:50.733Z,9.23
2023-03-06T07:36:17.552Z,8.50
2023-03-06T07:38:44.177Z,8.65
2023-03-06T07:41:13.677Z,8.38
2023-03-06T07:43:41.317Z,8.63
2023-03-06T07:46:08.271Z,8.38
2023-03-06T07:48:36.276Z,9.23
2023-03-06T07:51:05.984Z,8.45
2023-03-06T07:53:33.303Z,8.98
2023-03-06T07:56:00.468Z,8.50
2023-03-06T07:58:27.203Z,8.73
2023-03-06T08:00:53.851Z,8.95
2023-03-06T08:03:20.474Z,9.15
2023-03-06T08:05:47.132Z,8.40
2023-03-06T08:08:13.800Z,8.68
2023-03-06T08:10:40.555Z,9.02
2023-03-06T08:13:07.168Z,8.70
2023-03-06T08:15:33.808Z,8.93
2023-03-06T08:18:00.450Z,9.02
2023-03-06T08:20:27.140Z,7.68
2023-03-06T08:22:53.726Z,8.70
2023-03-06T08:25:20.348Z,9.55
2023-03-06T08:27:47.499Z,8.98
2023-03-06T08:30:14.818Z,9.48
2023-03-06T08:32:41.583Z,11.30
2023-03-06T08:35:08.687Z,10.27
2023-03-06T08:37:35.342Z,9.68
2023-03-06T08:40:04.657Z,8.05
2023-03-06T08:42:32.591Z,8.57
2023-03-06T08:44:59.259Z,10.00
2023-03-06T08:47:26.034Z,10.20
2023-03-06T08:49:52.687Z,10.18
2023-03-06T08:52:19.941Z,8.98
2023-03-06T08:54:46.682Z,10.00
2023-03-06T08:57:13.370Z,10.65
2023-03-06T08:59:40.061Z,10.43
2023-03-06T09:02:07.811Z,11.10
2023-03-06T09:04:34.779Z,10.35
2023-03-06T09:07:01.874Z,10.48
2023-03-06T09:09:28.591Z,10.30
2023-03-06T09:11:55.214Z,8.95
2023-03-06T09:14:21.975Z,10.98
2023-03-06T09:16:48.623Z,11.75
2023-03-06T09:19:15.248Z,11.40
2023-03-06T09:21:41.919Z,11.80
2023-03-06T09:24:08.936Z,15.82
2023-03-06T09:26:45.453Z,11.18
2023-03-06T09:29:13.167Z,13.50
2023-03-06T09:31:39.805Z,10.65
2023-03-06T09:34:06.456Z,11.07
2023-03-06T09:36:42.728Z,11.20
2023-03-06T09:39:16.132Z,12.38
2023-03-06T09:41:43.143Z,12.32
2023-03-06T09:44:21.263Z,14.30
2023-03-06T09:47:22.267Z,10.85
2023-03-06T09:50:01.239Z,11.10
2023-03-06T09:52:33.607Z,11.55
2023-03-06T09:55:14.903Z,13.00
2023-03-06T09:58:07.213Z,11.30
2023-03-06T10:00:38.724Z,12.98
2023-03-06T10:03:22.250Z,10.82
2023-03-06T10:06:18.465Z,10.85
2023-03-06T10:09:10.239Z,10.75
2023-03-06T10:11:43.539Z,11.20
2023-03-06T10:14:22.821Z,10.18
2023-03-06T10:16:49.734Z,10.98
2023-03-06T10:19:21.411Z,11.35
2023-03-06T10:22:21.833Z,11.90
2023-03-06T10:24:53.347Z,8.60
2023-03-06T10:27:36.568Z,10.80
2023-03-06T10:30:23.194Z,10.50
2023-03-06T10:33:22.872Z,11.23
2023-03-06T10:35:52.262Z,10.50
2023-03-06T10:38:26.516Z,10.32
2023-03-06T10:41:08.874Z,10.43
2023-03-06T10:43:36.773Z,11.13
2023-03-06T10:46:05.289Z,11.30
2023-03-06T10:48:36.163Z,10.50
2023-03-06T10:51:23.491Z,11.00
2023-03-06T10:53:59.658Z,10.30
2023-03-06T10:56:38.808Z,10.85
2023-03-06T10:59:12.860Z,10.18
2023-03-06T11:01:41.275Z,10.52
2023-03-06T11:04:27.485Z,10.30
2023-03-06T11:07:16.076Z,9.02
2023-03-06T11:09:47.732Z,10.07
2023-03-06T11:12:34.074Z,10.60
2023-03-06T11:15:17.653Z,10.30
2023-03-06T11:18:08.939Z,10.98
2023-03-06T11:20:51.385Z,10.32
2023-03-06T11:23:29.173Z,10.05
2023-03-06T11:26:02.433Z,10.02
2023-03-06T11:31:03.850Z,9.88
2023-03-06T11:33:53.718Z,9.25
2023-03-06T11:36:30.456Z,9.32
2023-03-06T11:38:57.123Z,9.02
2023-03-06T11:41:59.115Z,9.88
2023-03-06T11:45:07.234Z,8.85
2023-03-06T11:47:55.280Z,8.50
2023-03-06T11:50:37.708Z,9.57
2023-03-06T11:53:10.425Z,9.68
2023-03-06T11:56:22.902Z,9.02
2023-03-06T11:59:12.011Z,10.32
2023-03-06T12:01:58.085Z,10.25
2023-03-06T12:04:51.120Z,10.07
2023-03-06T12:07:33.765Z,9.93
2023-03-06T12:10:33.151Z,9.83
2023-03-06T12:13:14.895Z,9.50
2023-03-06T12:15:56.775Z,10.27
2023-03-06T12:18:32.371Z,11.13
2023-03-06T12:21:07.844Z,9.70
2023-03-06T12:24:05.204Z,9.77
2023-03-06T12:27:00.137Z,10.25
2023-03-06T12:29:41.649Z,10.85
2023-03-06T12:32:22.442Z,10.27
2023-03-06T12:35:06.097Z,10.82
2023-03-06T12:37:45.387Z,11.02
2023-03-06T12:40:44.302Z,10.00
2023-03-06T12:43:39.886Z,10.43
2023-03-06T12:46:21.570Z,10.13
2023-03-06T12:48:54.845Z,11.52
2023-03-06T12:53:50.385Z,10.65
2023-03-06T12:56:19.086Z,9.60
2023-03-06T12:58:53.922Z,10.02
2023-03-06T13:01:47.744Z,10.90
2023-03-06T13:04:35.775Z,10.70
2023-03-06T13:07:11.389Z,10.27
2023-03-06T13:10:03.724Z,10.02
2023-03-06T13:13:08.632Z,9.73
2023-03-06T13:15:45.940Z,10.65
2023-03-06T13:18:21.581Z,10.90
2023-03-06T13:20:52.790Z,10.45
2023-03-06T13:23:38.366Z,11.63
2023-03-06T13:26:25.418Z,11.10
2023-03-06T13:28:54.112Z,11.07
2023-03-06T13:31:33.890Z,10.48
2023-03-06T13:34:05.836Z,11.13
2023-03-06T13:36:39.579Z,10.55
2023-03-06T13:39:12.929Z,11.27
2023-03-06T13:41:43.879Z,9.80
2023-03-06T13:44:25.567Z,12.57
2023-03-06T13:47:05.753Z,10.75
2023-03-06T13:49:33.978Z,10.68
2023-03-06T13:52:21.466Z,11.55
2023-03-06T13:55:06.307Z,11.23
2023-03-06T13:57:54.074Z,10.98
2023-03-06T14:00:39.395Z,10.57
2023-03-06T14:03:09.121Z,10.63
2023-03-06T14:05:47.344Z,10.70
2023-03-06T14:08:17.459Z,12.98
2023-03-06T14:10:47.266Z,10.20
2023-03-06T14:13:41.827Z,10.50
2023-03-06T14:16:21.361Z,9.77
2023-03-06T14:18:50.751Z,11.27
2023-03-06T14:21:27.744Z,9.38
2023-03-06T14:24:02.957Z,10.23
2023-03-06T14:26:44.882Z,9.98
2023-03-06T14:29:21.278Z,10.52
2023-03-06T14:31:51.100Z,8.98
2023-03-06T14:34:45.959Z,11.45
2023-03-06T14:37:22.797Z,10.05
2023-03-06T14:39:49.601Z,10.32
2023-03-06T14:42:26.211Z,10.95
2023-03-06T14:45:16.733Z,10.05
2023-03-06T14:47:49.241Z,9.88
2023-03-06T14:50:20.232Z,9.52
2023-03-06T14:52:47.616Z,9.90
2023-03-06T14:55:19.834Z,9.82
2023-03-06T14:57:53.590Z,10.90
2023-03-06T15:00:24.581Z,9.90
2023-03-06T15:02:54.358Z,10.63
2023-03-06T15:05:29.977Z,10.77
2023-03-06T15:08:03.449Z,10.57
2023-03-06T15:10:32.729Z,10.27
2023-03-06T15:13:21.583Z,10.07
2023-03-06T15:16:18.701Z,10.25
2023-03-06T15:18:59.402Z,11.20
2023-03-06T15:21:27.497Z,11.63
2023-03-06T15:23:56.819Z,11.20
2023-03-06T15:26:29.450Z,11.85
2023-03-06T15:29:08.926Z,11.18
2023-03-06T15:32:17.294Z,11.27
2023-03-06T15:34:43.902Z,11.70
2023-03-06T15:37:28.113Z,10.70
2023-03-06T15:40:09.428Z,12.65
2023-03-06T15:42:36.661Z,10.75
2023-03-06T15:45:16.007Z,11.80
2023-03-06T15:47:44.814Z,11.70
2023-03-06T15:50:26.606Z,10.05
2023-03-06T15:52:53.528Z,11.73
2023-03-06T15:55:23.880Z,11.07
2023-03-06T15:57:54.413Z,10.48
2023-03-06T16:00:29.694Z,11.98
2023-03-06T16:02:57.394Z,12.98
2023-03-06T16:05:25.447Z,11.32
2023-03-06T16:07:52.098Z,11.82
2023-03-06T16:10:21.881Z,12.52
2023-03-06T16:12:56.502Z,11.57
2023-03-06T16:15:28.991Z,11.50
2023-03-06T16:17:59.856Z,12.07
2023-03-06T16:20:28.588Z,12.63
2023-03-06T16:22:55.868Z,12.85
2023-03-06T16:25:24.817Z,11.48
2023-03-06T16:27:59.963Z,10.35
2023-03-06T16:30:29.709Z,12.20
2023-03-06T16:32:57.121Z,10.45
2023-03-06T16:35:24.181Z,11.07
2023-03-06T16:37:51.772Z,9.75
2023-03-06T16:40:30.899Z,10.40
2023-03-06T16:42:57.480Z,11.13
2023-03-06T16:45:24.698Z,11.13
2023-03-06T16:47:51.918Z,12.00
2023-03-06T16:50:26.346Z,11.48
2023-03-06T16:52:54.890Z,10.68
2023-03-06T16:55:22.482Z,11.00
2023-03-06T16:57:49.253Z,13.65
2023-03-06T17:00:18.712Z,12.45
2023-03-06T17:02:48.763Z,11.35
2023-03-06T17:05:15.623Z,10.15
2023-03-06T17:07:42.422Z,11.10
2023-03-06T17:10:13.229Z,10.85
2023-03-06T17:12:39.898Z,10.48
2023-03-06T17:15:07.521Z,11.13
2023-03-06T17:17:34.384Z,11.63
2023-03-06T17:20:01.524Z,14.43
2023-03-06T17:22:28.467Z,14.40
2023-03-06T17:24:55.083Z,12.30
2023-03-06T17:27:22.956Z,12.65
2023-03-06T17:29:49.672Z,12.27
2023-03-06T17:32:16.321Z,12.10
2023-03-06T17:34:43.049Z,11.23
2023-03-06T17:37:09.723Z,9.77
2023-03-06T17:39:38.911Z,10.90
2023-03-06T17:42:06.648Z,9.45
2023-03-06T17:44:34.526Z,10.10
2023-03-06T17:47:01.890Z,11.57
2023-03-06T17:49:28.604Z,12.65
2023-03-06T17:51:58.039Z,10.60
2023-03-06T17:54:29.297Z,10.10
2023-03-06T17:57:04.539Z,11.15
2023-03-06T17:59:34.222Z,12.73
2023-03-06T18:02:01.307Z,11.68
2023-03-06T18:04:28.143Z,11.63
2023-03-06T18:06:54.922Z,11.77
2023-03-06T18:09:21.603Z,11.07
2023-03-06T18:11:48.203Z,11.88
2023-03-06T18:14:14.911Z,11.50
2023-03-06T18:16:41.621Z,9.75
2023-03-06T18:19:11.112Z,9.93
2023-03-06T18:21:39.657Z,10.48
2023-03-06T18:24:07.048Z,11.10
2023-03-06T18:26:33.794Z,10.98
2023-03-06T18:29:04.372Z,11.25
2023-03-06T18:31:39.765Z,10.50
2023-03-06T18:34:12.230Z,10.20
2023-03-06T18:36:39.736Z,10.63
2023-03-06T18:39:09.632Z,9.05
2023-03-06T18:41:37.134Z,10.38
2023-03-06T18:44:04.450Z,9.90
2023-03-06T18:46:36.897Z,10.52
2023-03-06T18:49:04.298Z,11.77
2023-03-06T18:51:31.285Z,11.15
2023-03-06T18:53:59.037Z,11.98
2023-03-06T18:56:25.859Z,11.23
2023-03-06T18:58:52.858Z,12.07
2023-03-06T19:01:19.620Z,11.80
2023-03-06T19:03:46.855Z,11.30
2023-03-06T19:06:15.372Z,12.63
2023-03-06T19:08:42.206Z,12.07
2023-03-06T19:11:17.050Z,10.60
2023-03-06T19:13:44.584Z,12.48
2023-03-06T19:16:28.328Z,11.23
2023-03-06T19:18:56.180Z,12.02
2023-03-06T19:21:24.854Z,10.98
2023-03-06T19:23:51.789Z,17.58
2023-03-06T19:26:18.998Z,15.50
2023-03-06T19:28:46.537Z,13.32
2023-03-06T19:31:24.205Z,14.05
2023-03-06T19:33:53.140Z,10.55
2023-03-06T19:36:23.652Z,10.43
2023-03-06T19:38:54.955Z,10.57
2023-03-06T19:41:21.905Z,10.93
2023-03-06T19:43:54.799Z,9.93
2023-03-06T19:46:22.895Z,9.70
2023-03-06T19:48:57.661Z,9.93
2023-03-06T19:51:25.572Z,10.57
2023-03-06T19:53:52.839Z,9.65
2023-03-06T19:56:22.678Z,9.77
2023-03-06T19:58:49.288Z,9.13
2023-03-06T20:01:20.783Z,9.20
2023-03-06T20:03:47.590Z,9.02
2023-03-06T20:06:17.474Z,9.20
2023-03-06T20:08:45.250Z,8.65
2023-03-06T20:11:19.533Z,9.15
2023-03-06T20:13:47.946Z,9.80
2023-03-06T20:16:15.417Z,9.73
2023-03-06T20:18:42.412Z,8.40
2023-03-06T20:21:09.114Z,9.30
2023-03-06T20:23:35.846Z,8.95
2023-03-06T20:26:14.963Z,8.45
2023-03-06T20:28:42.970Z,9.65
2023-03-06T20:31:26.466Z,10.43
2023-03-06T20:33:54.263Z,8.60
2023-03-06T20:36:23.849Z,10.75
2023-03-06T20:38:50.845Z,11.80
2023-03-06T20:41:23.018Z,10.70
2023-03-06T20:43:50.006Z,9.70
2023-03-06T20:46:17.763Z,9.23
2023-03-06T20:48:48.539Z,10.07
2023-03-06T20:51:18.853Z,9.48
2023-03-06T20:53:49.698Z,9.63
2023-03-06T20:56:18.587Z,8.13
2023-03-06T20:58:45.405Z,8.93
2023-03-06T21:01:41.211Z,7.57
2023-03-06T21:04:13.969Z,8.95
2023-03-06T21:06:43.987Z,8.45
2023-03-06T21:09:11.102Z,8.20
2023-03-06T21:11:37.974Z,9.65
2023-03-06T21:14:04.637Z,8.45
2023-03-06T21:16:31.342Z,11.93
2023-03-06T21:18:59.863Z,9.10
2023-03-06T21:21:29.748Z,9.20
2023-03-06T21:23:56.596Z,8.15
2023-03-06T21:26:26.013Z,7.97
2023-03-06T21:28:53.306Z,9.90
2023-03-06T21:31:21.672Z,8.70
2023-03-06T21:33:49.852Z,9.35
2023-03-06T21:36:18.745Z,9.98
2023-03-06T21:38:45.597Z,14.05
2023-03-06T21:41:17.799Z,11.93
2023-03-06T21:43:44.686Z,10.67
2023-03-06T21:46:11.946Z,10.70
2023-03-06T21:48:38.648Z,10.57
2023-03-06T21:51:13.738Z,9.98
2023-03-06T21:53:44.265Z,11.15
2023-03-06T21:56:12.170Z,10.20
2023-03-06T21:58:39.281Z,14.05
2023-03-06T22:01:21.808Z,10.48
2023-03-06T22:03:48.691Z,10.63
2023-03-06T22:06:18.555Z,10.77
2023-03-06T22:08:46.361Z,11.30
2023-03-06T22:11:16.067Z,11.20
2023-03-06T22:13:43.347Z,10.10
2023-03-06T22:16:10.428Z,9.95
2023-03-06T22:18:37.735Z,10.05
2023-03-06T22:21:09.327Z,11.75
2023-03-06T22:23:36.305Z,10.00
2023-03-06T22:26:08.314Z,10.52
2023-03-06T22:28:35.344Z,10.23
2023-03-06T22:31:09.847Z,7.22
2023-03-06T22:33:36.887Z,7.55
2023-03-06T22:36:07.663Z,6.88
2023-03-06T22:38:39.993Z,6.43
2023-03-06T22:41:07.988Z,5.80
2023-03-06T22:43:35.559Z,6.75
2023-03-06T22:46:11.069Z,7.22
2023-03-06T22:48:38.136Z,7.03
2023-03-06T22:51:10.801Z,7.22
2023-03-06T22:53:38.010Z,7.72
2023-03-06T22:56:06.893Z,9.02
2023-03-06T22:58:37.146Z,8.63
2023-03-06T23:01:09.864Z,9.10
2023-03-06T23:03:38.515Z,7.82
2023-03-06T23:06:12.798Z,7.90
2023-03-06T23:08:39.434Z,8.13
2023-03-06T23:11:10.957Z,8.00
2023-03-06T23:13:38.518Z,7.97
2023-03-06T23:16:06.930Z,8.38
2023-03-06T23:18:35.315Z,8.35
2023-03-06T23:21:09.496Z,8.18
2023-03-06T23:23:40.168Z,7.97
2023-03-06T23:26:08.530Z,7.22
2023-03-06T23:28:35.224Z,8.30
2023-03-06T23:31:12.975Z,8.48
2023-03-06T23:33:39.966Z,9.20
2023-03-06T23:36:09.411Z,8.65
2023-03-06T23:38:36.088Z,8.13
2023-03-06T23:41:11.530Z,7.90
2023-03-06T23:43:38.458Z,7.57
2023-03-06T23:46:07.070Z,8.25
2023-03-06T23:48:35.911Z,7.40
2023-03-06T23:51:24.098Z,7.65
2023-03-06T23:53:56.610Z,7.20
2023-03-06T23:56:24.733Z,7.78
2023-03-06T23:58:51.596Z,7.68
